sensor_id;sensor_type;location;lat;lon;timestamp;temperature;humidity
1778;DHT22;71547;50.146;8.174;2023-11-21T00:02:26;8.30;99.90
1778;DHT22;71547;50.146;8.174;2023-11-21T00:04:56;8.30;99.90
1778;DHT22;71547;50.146;8.174;2023-11-21T00:07:25;8.40;99.90
1778;DHT22;71547;50.146;8.174;2023-11-21T00:09:52;8.40;99.90
1778;DHT22;71547;50.146;8.174;2023-11-21T00:12:19;8.40;99.90
1778;DHT22;71547;50.146;8.174;2023-11-21T00:14:47;8.40;99.90
1778;DHT22;71547;50.146;8.174;2023-11-21T00:17:14;8.40;99.90
1778;DHT22;71547;50.146;8.174;2023-11-21T00:19:41;8.40;99.90
1778;DHT22;71547;50.146;8.174;2023-11-21T00:22:09;8.40;99.90
1778;DHT22;71547;50.146;8.174;2023-11-21T00:24:38;8.40;99.90
1778;DHT22;71547;50.146;8.174;2023-11-21T00:27:05;8.40;99.90
1778;DHT22;71547;50.146;8.174;2023-11-21T00:29:32;8.40;99.90
1778;DHT22;71547;50.146;8.174;2023-11-21T00:32:00;8.40;99.90
1778;DHT22;71547;50.146;8.174;2023-11-21T00:34:27;8.40;99.90
1778;DHT22;71547;50.146;8.174;2023-11-21T00:36:54;8.40;99.90
1778;DHT22;71547;50.146;8.174;2023-11-21T00:39:21;8.40;99.90
1778;DHT22;71547;50.146;8.174;2023-11-21T00:41:50;8.40;99.90
1778;DHT22;71547;50.146;8.174;2023-11-21T00:44:17;8.40;99.90
1778;DHT22;71547;50.146;8.174;2023-11-21T00:46:44;8.40;99.90
1778;DHT22;71547;50.146;8.174;2023-11-21T00:49:12;8.40;99.90
1778;DHT22;71547;50.146;8.174;2023-11-21T00:51:39;8.40;99.90
1778;DHT22;71547;50.146;8.174;2023-11-21T00:54:07;8.40;99.90
1778;DHT22;71547;50.146;8.174;2023-11-21T00:56:34;8.40;99.90
1778;DHT22;71547;50.146;8.174;2023-11-21T00:59:03;8.40;99.90
1778;DHT22;71547;50.146;8.174;2023-11-21T01:01:31;8.40;99.90
1778;DHT22;71547;50.146;8.174;2023-11-21T01:03:59;8.40;99.90
1778;DHT22;71547;50.146;8.174;2023-11-21T01:06:26;8.40;99.90
1778;DHT22;71547;50.146;8.174;2023-11-21T01:08:53;8.40;99.90
1778;DHT22;71547;50.146;8.174;2023-11-21T01:11:20;8.40;99.90
1778;DHT22;71547;50.146;8.174;2023-11-21T01:13:47;8.40;99.90
1778;DHT22;71547;50.146;8.174;2023-11-21T01:16:16;8.40;99.90
1778;DHT22;71547;50.146;8.174;2023-11-21T01:18:43;8.40;99.90
1778;DHT22;71547;50.146;8.174;2023-11-21T01:21:10;8.40;99.90
1778;DHT22;71547;50.146;8.174;2023-11-21T01:23:37;8.40;99.90
1778;DHT22;71547;50.146;8.174;2023-11-21T01:26:04;8.40;99.90
1778;DHT22;71547;50.146;8.174;2023-11-21T01:28:32;8.40;99.90
1778;DHT22;71547;50.146;8.174;2023-11-21T01:30:59;8.40;99.90
1778;DHT22;71547;50.146;8.174;2023-11-21T01:33:27;8.40;99.90
1778;DHT22;71547;50.146;8.174;2023-11-21T01:35:55;8.40;99.90
1778;DHT22;71547;50.146;8.174;2023-11-21T01:38:22;8.40;99.90
1778;DHT22;71547;50.146;8.174;2023-11-21T01:40:49;8.40;99.90
1778;DHT22;71547;50.146;8.174;2023-11-21T01:43:16;8.40;99.90
1778;DHT22;71547;50.146;8.174;2023-11-21T01:45:43;8.40;99.90
1778;DHT22;71547;50.146;8.174;2023-11-21T01:48:13;8.50;99.90
1778;DHT22;71547;50.146;8.174;2023-11-21T01:50:44;8.40;99.90
1778;DHT22;71547;50.146;8.174;2023-11-21T01:53:12;8.40;99.90
1778;DHT22;71547;50.146;8.174;2023-11-21T01:55:41;8.40;99.90
1778;DHT22;71547;50.146;8.174;2023-11-21T01:58:09;8.40;99.90
1778;DHT22;71547;50.146;8.174;2023-11-21T02:00:38;8.40;99.90
1778;DHT22;71547;50.146;8.174;2023-11-21T02:03:05;8.40;99.90
1778;DHT22;71547;50.146;8.174;2023-11-21T02:05:34;8.40;99.90
1778;DHT22;71547;50.146;8.174;2023-11-21T02:08:02;8.40;99.90
1778;DHT22;71547;50.146;8.174;2023-11-21T02:10:31;8.40;99.90
1778;DHT22;71547;50.146;8.174;2023-11-21T02:12:58;8.40;99.90
1778;DHT22;71547;50.146;8.174;2023-11-21T02:15:27;8.40;99.90
1778;DHT22;71547;50.146;8.174;2023-11-21T02:17:56;8.30;99.90
1778;DHT22;71547;50.146;8.174;2023-11-21T02:20:25;8.30;99.90
1778;DHT22;71547;50.146;8.174;2023-11-21T02:22:55;8.40;99.90
1778;DHT22;71547;50.146;8.174;2023-11-21T02:25:28;8.30;99.90
1778;DHT22;71547;50.146;8.174;2023-11-21T02:27:57;8.30;99.90
1778;DHT22;71547;50.146;8.174;2023-11-21T02:30:25;8.30;99.90
1778;DHT22;71547;50.146;8.174;2023-11-21T02:32:52;8.30;99.90
1778;DHT22;71547;50.146;8.174;2023-11-21T02:35:24;8.30;99.90
1778;DHT22;71547;50.146;8.174;2023-11-21T02:37:56;8.30;99.90
1778;DHT22;71547;50.146;8.174;2023-11-21T02:40:23;8.20;99.90
1778;DHT22;71547;50.146;8.174;2023-11-21T02:42:52;8.20;99.90
1778;DHT22;71547;50.146;8.174;2023-11-21T02:45:20;8.20;99.90
1778;DHT22;71547;50.146;8.174;2023-11-21T02:47:48;8.20;99.90
1778;DHT22;71547;50.146;8.174;2023-11-21T02:50:16;8.20;99.90
1778;DHT22;71547;50.146;8.174;2023-11-21T02:52:45;8.10;99.90
1778;DHT22;71547;50.146;8.174;2023-11-21T02:55:15;8.10;99.90
1778;DHT22;71547;50.146;8.174;2023-11-21T02:57:42;8.10;99.90
1778;DHT22;71547;50.146;8.174;2023-11-21T03:00:10;8.10;99.90
1778;DHT22;71547;50.146;8.174;2023-11-21T03:02:39;8.10;99.90
1778;DHT22;71547;50.146;8.174;2023-11-21T03:05:07;8.10;99.90
1778;DHT22;71547;50.146;8.174;2023-11-21T03:07:36;8.00;99.90
1778;DHT22;71547;50.146;8.174;2023-11-21T03:10:06;8.00;99.90
1778;DHT22;71547;50.146;8.174;2023-11-21T03:12:38;8.00;99.90
1778;DHT22;71547;50.146;8.174;2023-11-21T03:15:06;8.00;99.90
1778;DHT22;71547;50.146;8.174;2023-11-21T03:17:33;8.00;99.90
1778;DHT22;71547;50.146;8.174;2023-11-21T03:20:05;8.00;99.90
1778;DHT22;71547;50.146;8.174;2023-11-21T03:22:33;8.00;99.90
1778;DHT22;71547;50.146;8.174;2023-11-21T03:25:00;8.00;99.90
1778;DHT22;71547;50.146;8.174;2023-11-21T03:27:27;8.00;99.90
1778;DHT22;71547;50.146;8.174;2023-11-21T03:29:56;8.00;99.90
1778;DHT22;71547;50.146;8.174;2023-11-21T03:32:23;8.00;99.90
1778;DHT22;71547;50.146;8.174;2023-11-21T03:34:54;8.10;99.90
1778;DHT22;71547;50.146;8.174;2023-11-21T03:37:23;8.10;99.90
1778;DHT22;71547;50.146;8.174;2023-11-21T03:39:51;8.10;99.90
1778;DHT22;71547;50.146;8.174;2023-11-21T03:42:19;8.10;99.90
1778;DHT22;71547;50.146;8.174;2023-11-21T03:44:46;8.00;99.90
1778;DHT22;71547;50.146;8.174;2023-11-21T03:47:14;8.10;99.90
1778;DHT22;71547;50.146;8.174;2023-11-21T03:49:41;8.10;99.90
1778;DHT22;71547;50.146;8.174;2023-11-21T03:52:08;8.10;99.90
1778;DHT22;71547;50.146;8.174;2023-11-21T03:54:37;8.10;99.90
1778;DHT22;71547;50.146;8.174;2023-11-21T03:57:04;8.10;99.90
1778;DHT22;71547;50.146;8.174;2023-11-21T03:59:32;8.10;99.90
1778;DHT22;71547;50.146;8.174;2023-11-21T04:02:00;8.10;99.90
1778;DHT22;71547;50.146;8.174;2023-11-21T04:04:47;8.00;99.90
1778;DHT22;71547;50.146;8.174;2023-11-21T04:07:14;8.10;99.90
1778;DHT22;71547;50.146;8.174;2023-11-21T04:09:41;8.10;99.90
1778;DHT22;71547;50.146;8.174;2023-11-21T04:12:09;8.00;99.90
1778;DHT22;71547;50.146;8.174;2023-11-21T04:14:37;8.10;99.90
1778;DHT22;71547;50.146;8.174;2023-11-21T04:17:39;8.10;99.90
1778;DHT22;71547;50.146;8.174;2023-11-21T04:20:08;8.10;99.90
1778;DHT22;71547;50.146;8.174;2023-11-21T04:22:37;8.10;99.90
1778;DHT22;71547;50.146;8.174;2023-11-21T04:25:25;8.10;99.90
1778;DHT22;71547;50.146;8.174;2023-11-21T04:27:52;8.10;99.90
1778;DHT22;71547;50.146;8.174;2023-11-21T04:30:19;8.10;99.90
1778;DHT22;71547;50.146;8.174;2023-11-21T04:32:47;8.00;99.90
1778;DHT22;71547;50.146;8.174;2023-11-21T04:35:16;8.10;99.90
1778;DHT22;71547;50.146;8.174;2023-11-21T04:37:43;8.10;99.90
1778;DHT22;71547;50.146;8.174;2023-11-21T04:40:11;8.10;99.90
1778;DHT22;71547;50.146;8.174;2023-11-21T04:42:38;8.10;99.90
1778;DHT22;71547;50.146;8.174;2023-11-21T04:45:07;8.00;99.90
1778;DHT22;71547;50.146;8.174;2023-11-21T04:47:36;8.00;99.90
1778;DHT22;71547;50.146;8.174;2023-11-21T04:50:05;8.10;99.90
1778;DHT22;71547;50.146;8.174;2023-11-21T04:52:34;8.00;99.90
1778;DHT22;71547;50.146;8.174;2023-11-21T04:55:01;8.10;99.90
1778;DHT22;71547;50.146;8.174;2023-11-21T04:57:29;8.00;99.90
1778;DHT22;71547;50.146;8.174;2023-11-21T04:59:57;8.00;99.90
1778;DHT22;71547;50.146;8.174;2023-11-21T05:02:24;8.00;99.90
1778;DHT22;71547;50.146;8.174;2023-11-21T05:05:01;8.10;99.90
1778;DHT22;71547;50.146;8.174;2023-11-21T05:07:29;8.00;99.90
1778;DHT22;71547;50.146;8.174;2023-11-21T05:09:59;8.00;99.90
1778;DHT22;71547;50.146;8.174;2023-11-21T05:12:31;8.00;99.90
1778;DHT22;71547;50.146;8.174;2023-11-21T05:15:05;8.00;99.90
1778;DHT22;71547;50.146;8.174;2023-11-21T05:17:36;8.00;99.90
1778;DHT22;71547;50.146;8.174;2023-11-21T05:20:06;8.10;99.90
1778;DHT22;71547;50.146;8.174;2023-11-21T05:22:37;8.00;99.90
1778;DHT22;71547;50.146;8.174;2023-11-21T05:25:07;8.10;99.90
1778;DHT22;71547;50.146;8.174;2023-11-21T05:27:35;8.00;99.90
1778;DHT22;71547;50.146;8.174;2023-11-21T05:30:04;8.10;99.90
1778;DHT22;71547;50.146;8.174;2023-11-21T05:32:32;8.00;99.90
1778;DHT22;71547;50.146;8.174;2023-11-21T05:34:59;8.10;99.90
1778;DHT22;71547;50.146;8.174;2023-11-21T05:37:27;8.00;99.90
1778;DHT22;71547;50.146;8.174;2023-11-21T05:40:14;8.00;99.90
1778;DHT22;71547;50.146;8.174;2023-11-21T05:42:41;8.00;99.90
1778;DHT22;71547;50.146;8.174;2023-11-21T05:45:09;8.00;99.90
1778;DHT22;71547;50.146;8.174;2023-11-21T05:47:38;8.00;99.90
1778;DHT22;71547;50.146;8.174;2023-11-21T05:50:08;8.00;99.90
1778;DHT22;71547;50.146;8.174;2023-11-21T05:52:42;8.00;99.90
1778;DHT22;71547;50.146;8.174;2023-11-21T05:55:10;8.00;99.90
1778;DHT22;71547;50.146;8.174;2023-11-21T05:57:40;8.00;99.90
1778;DHT22;71547;50.146;8.174;2023-11-21T06:00:10;8.00;99.90
1778;DHT22;71547;50.146;8.174;2023-11-21T06:02:39;8.00;99.90
1778;DHT22;71547;50.146;8.174;2023-11-21T06:05:07;8.00;99.90
1778;DHT22;71547;50.146;8.174;2023-11-21T06:07:35;8.00;99.90
1778;DHT22;71547;50.146;8.174;2023-11-21T06:10:05;8.00;99.90
1778;DHT22;71547;50.146;8.174;2023-11-21T06:12:36;8.00;99.90
1778;DHT22;71547;50.146;8.174;2023-11-21T06:15:05;8.00;99.90
1778;DHT22;71547;50.146;8.174;2023-11-21T06:17:35;8.00;99.90
1778;DHT22;71547;50.146;8.174;2023-11-21T06:20:04;8.00;99.90
1778;DHT22;71547;50.146;8.174;2023-11-21T06:22:36;8.00;99.90
1778;DHT22;71547;50.146;8.174;2023-11-21T06:25:04;8.00;99.90
1778;DHT22;71547;50.146;8.174;2023-11-21T06:27:32;8.00;99.90
1778;DHT22;71547;50.146;8.174;2023-11-21T06:30:01;8.00;99.90
1778;DHT22;71547;50.146;8.174;2023-11-21T06:32:29;8.00;99.90
1778;DHT22;71547;50.146;8.174;2023-11-21T06:34:58;8.00;99.90
1778;DHT22;71547;50.146;8.174;2023-11-21T06:37:29;8.00;99.90
1778;DHT22;71547;50.146;8.174;2023-11-21T06:39:57;8.00;99.90
1778;DHT22;71547;50.146;8.174;2023-11-21T06:42:25;7.90;99.90
1778;DHT22;71547;50.146;8.174;2023-11-21T06:44:52;8.00;99.90
1778;DHT22;71547;50.146;8.174;2023-11-21T06:47:24;7.90;99.90
1778;DHT22;71547;50.146;8.174;2023-11-21T06:49:59;7.90;99.90
1778;DHT22;71547;50.146;8.174;2023-11-21T06:52:27;7.90;99.90
1778;DHT22;71547;50.146;8.174;2023-11-21T06:54:54;7.90;99.90
1778;DHT22;71547;50.146;8.174;2023-11-21T06:57:22;7.90;99.90
1778;DHT22;71547;50.146;8.174;2023-11-21T06:59:50;7.90;99.90
1778;DHT22;71547;50.146;8.174;2023-11-21T07:02:17;7.90;99.90
1778;DHT22;71547;50.146;8.174;2023-11-21T07:04:45;7.90;99.90
1778;DHT22;71547;50.146;8.174;2023-11-21T07:07:14;7.90;99.90
1778;DHT22;71547;50.146;8.174;2023-11-21T07:09:41;7.90;99.90
1778;DHT22;71547;50.146;8.174;2023-11-21T07:12:08;7.90;99.90
1778;DHT22;71547;50.146;8.174;2023-11-21T07:14:35;7.90;99.90
1778;DHT22;71547;50.146;8.174;2023-11-21T07:17:03;7.90;99.90
1778;DHT22;71547;50.146;8.174;2023-11-21T07:19:30;8.00;99.90
1778;DHT22;71547;50.146;8.174;2023-11-21T07:21:57;8.00;99.90
1778;DHT22;71547;50.146;8.174;2023-11-21T07:24:26;8.00;99.90
1778;DHT22;71547;50.146;8.174;2023-11-21T07:26:53;8.00;99.90
1778;DHT22;71547;50.146;8.174;2023-11-21T07:29:23;8.00;99.90
1778;DHT22;71547;50.146;8.174;2023-11-21T07:31:52;8.00;99.90
1778;DHT22;71547;50.146;8.174;2023-11-21T07:34:20;8.00;99.90
1778;DHT22;71547;50.146;8.174;2023-11-21T07:36:48;8.00;99.90
1778;DHT22;71547;50.146;8.174;2023-11-21T07:39:15;8.00;99.90
1778;DHT22;71547;50.146;8.174;2023-11-21T07:41:46;8.00;99.90
1778;DHT22;71547;50.146;8.174;2023-11-21T07:44:16;8.00;99.90
1778;DHT22;71547;50.146;8.174;2023-11-21T07:46:44;8.00;99.90
1778;DHT22;71547;50.146;8.174;2023-11-21T07:49:11;8.10;99.90
1778;DHT22;71547;50.146;8.174;2023-11-21T07:51:41;8.10;99.90
1778;DHT22;71547;50.146;8.174;2023-11-21T07:54:08;8.10;99.90
1778;DHT22;71547;50.146;8.174;2023-11-21T07:56:35;8.00;99.90
1778;DHT22;71547;50.146;8.174;2023-11-21T07:59:04;8.10;99.90
1778;DHT22;71547;50.146;8.174;2023-11-21T08:01:31;8.10;99.90
1778;DHT22;71547;50.146;8.174;2023-11-21T08:03:58;8.10;99.90
1778;DHT22;71547;50.146;8.174;2023-11-21T08:06:30;8.10;99.90
1778;DHT22;71547;50.146;8.174;2023-11-21T08:08:57;8.10;99.90
1778;DHT22;71547;50.146;8.174;2023-11-21T08:11:25;8.10;99.90
1778;DHT22;71547;50.146;8.174;2023-11-21T08:13:55;8.10;99.90
1778;DHT22;71547;50.146;8.174;2023-11-21T08:16:25;8.10;99.90
1778;DHT22;71547;50.146;8.174;2023-11-21T08:18:52;8.10;99.90
1778;DHT22;71547;50.146;8.174;2023-11-21T08:21:19;8.10;99.90
1778;DHT22;71547;50.146;8.174;2023-11-21T08:23:46;8.10;99.90
1778;DHT22;71547;50.146;8.174;2023-11-21T08:26:19;8.20;99.90
1778;DHT22;71547;50.146;8.174;2023-11-21T08:28:46;8.20;99.90
1778;DHT22;71547;50.146;8.174;2023-11-21T08:31:14;8.20;99.90
1778;DHT22;71547;50.146;8.174;2023-11-21T08:33:43;8.20;99.90
1778;DHT22;71547;50.146;8.174;2023-11-21T08:36:10;8.20;99.90
1778;DHT22;71547;50.146;8.174;2023-11-21T08:38:38;8.20;99.90
1778;DHT22;71547;50.146;8.174;2023-11-21T08:41:06;8.20;99.90
1778;DHT22;71547;50.146;8.174;2023-11-21T08:43:37;8.20;99.90
1778;DHT22;71547;50.146;8.174;2023-11-21T08:46:07;8.20;99.90
1778;DHT22;71547;50.146;8.174;2023-11-21T08:48:38;8.20;99.90
1778;DHT22;71547;50.146;8.174;2023-11-21T08:51:09;8.20;99.90
1778;DHT22;71547;50.146;8.174;2023-11-21T08:53:36;8.20;99.90
1778;DHT22;71547;50.146;8.174;2023-11-21T08:56:05;8.20;99.90
1778;DHT22;71547;50.146;8.174;2023-11-21T08:58:33;8.20;99.90
1778;DHT22;71547;50.146;8.174;2023-11-21T09:01:00;8.20;99.90
1778;DHT22;71547;50.146;8.174;2023-11-21T09:03:27;8.20;99.90
1778;DHT22;71547;50.146;8.174;2023-11-21T09:05:55;8.30;99.90
1778;DHT22;71547;50.146;8.174;2023-11-21T09:08:23;8.20;99.90
1778;DHT22;71547;50.146;8.174;2023-11-21T09:10:50;8.30;99.90
1778;DHT22;71547;50.146;8.174;2023-11-21T09:13:18;8.30;99.90
1778;DHT22;71547;50.146;8.174;2023-11-21T09:15:45;8.30;99.90
1778;DHT22;71547;50.146;8.174;2023-11-21T09:18:13;8.40;99.90
1778;DHT22;71547;50.146;8.174;2023-11-21T09:20:41;8.40;99.90
1778;DHT22;71547;50.146;8.174;2023-11-21T09:23:09;8.40;99.90
1778;DHT22;71547;50.146;8.174;2023-11-21T09:25:38;8.50;99.90
1778;DHT22;71547;50.146;8.174;2023-11-21T09:28:06;8.50;99.90
1778;DHT22;71547;50.146;8.174;2023-11-21T09:30:34;8.50;99.90
1778;DHT22;71547;50.146;8.174;2023-11-21T09:33:03;8.50;99.90
1778;DHT22;71547;50.146;8.174;2023-11-21T09:35:35;8.50;99.90
1778;DHT22;71547;50.146;8.174;2023-11-21T09:38:02;8.60;99.90
1778;DHT22;71547;50.146;8.174;2023-11-21T09:40:32;8.60;99.90
1778;DHT22;71547;50.146;8.174;2023-11-21T09:43:04;8.60;99.90
1778;DHT22;71547;50.146;8.174;2023-11-21T09:45:35;8.70;99.90
1778;DHT22;71547;50.146;8.174;2023-11-21T09:48:02;8.70;99.90
1778;DHT22;71547;50.146;8.174;2023-11-21T09:50:31;8.70;99.90
1778;DHT22;71547;50.146;8.174;2023-11-21T09:53:09;8.70;99.90
1778;DHT22;71547;50.146;8.174;2023-11-21T09:55:44;8.70;99.90
1778;DHT22;71547;50.146;8.174;2023-11-21T09:58:13;8.70;99.90
1778;DHT22;71547;50.146;8.174;2023-11-21T10:00:42;8.70;99.90
1778;DHT22;71547;50.146;8.174;2023-11-21T10:03:10;8.70;99.90
1778;DHT22;71547;50.146;8.174;2023-11-21T10:05:39;8.70;99.90
1778;DHT22;71547;50.146;8.174;2023-11-21T10:08:08;8.70;99.90
1778;DHT22;71547;50.146;8.174;2023-11-21T10:10:37;8.70;99.90
1778;DHT22;71547;50.146;8.174;2023-11-21T10:13:10;8.70;99.90
1778;DHT22;71547;50.146;8.174;2023-11-21T10:15:43;8.80;99.90
1778;DHT22;71547;50.146;8.174;2023-11-21T10:18:16;8.70;99.90
1778;DHT22;71547;50.146;8.174;2023-11-21T10:20:45;8.80;99.90
1778;DHT22;71547;50.146;8.174;2023-11-21T10:23:20;8.80;99.90
1778;DHT22;71547;50.146;8.174;2023-11-21T10:25:49;8.80;99.90
1778;DHT22;71547;50.146;8.174;2023-11-21T10:28:20;8.80;99.90
1778;DHT22;71547;50.146;8.174;2023-11-21T10:30:48;8.90;99.90
1778;DHT22;71547;50.146;8.174;2023-11-21T10:33:15;9.00;99.90
1778;DHT22;71547;50.146;8.174;2023-11-21T10:35:44;9.00;99.90
1778;DHT22;71547;50.146;8.174;2023-11-21T10:38:18;9.10;99.90
1778;DHT22;71547;50.146;8.174;2023-11-21T10:40:47;9.20;99.90
1778;DHT22;71547;50.146;8.174;2023-11-21T10:43:16;9.30;99.90
1778;DHT22;71547;50.146;8.174;2023-11-21T10:45:45;9.40;99.90
1778;DHT22;71547;50.146;8.174;2023-11-21T10:48:15;9.40;99.90
1778;DHT22;71547;50.146;8.174;2023-11-21T10:50:44;9.40;99.90
1778;DHT22;71547;50.146;8.174;2023-11-21T10:53:11;9.50;99.90
1778;DHT22;71547;50.146;8.174;2023-11-21T10:55:40;9.50;99.90
1778;DHT22;71547;50.146;8.174;2023-11-21T10:58:08;9.40;99.90
1778;DHT22;71547;50.146;8.174;2023-11-21T11:00:38;9.40;99.90
1778;DHT22;71547;50.146;8.174;2023-11-21T11:03:09;9.40;99.90
1778;DHT22;71547;50.146;8.174;2023-11-21T11:05:44;9.40;99.90
1778;DHT22;71547;50.146;8.174;2023-11-21T11:08:21;9.40;99.90
1778;DHT22;71547;50.146;8.174;2023-11-21T11:10:55;9.50;99.90
1778;DHT22;71547;50.146;8.174;2023-11-21T11:13:23;9.60;99.90
1778;DHT22;71547;50.146;8.174;2023-11-21T11:15:51;9.60;99.90
1778;DHT22;71547;50.146;8.174;2023-11-21T11:18:27;9.60;99.90
1778;DHT22;71547;50.146;8.174;2023-11-21T11:21:00;9.60;99.90
1778;DHT22;71547;50.146;8.174;2023-11-21T11:23:46;9.60;99.90
1778;DHT22;71547;50.146;8.174;2023-11-21T11:26:29;9.50;99.90
1778;DHT22;71547;50.146;8.174;2023-11-21T11:31:56;9.50;99.90
1778;DHT22;71547;50.146;8.174;2023-11-21T11:34:36;9.40;99.90
1778;DHT22;71547;50.146;8.174;2023-11-21T11:37:09;9.40;99.90
1778;DHT22;71547;50.146;8.174;2023-11-21T11:39:37;9.40;99.90
1778;DHT22;71547;50.146;8.174;2023-11-21T11:42:08;9.40;99.90
1778;DHT22;71547;50.146;8.174;2023-11-21T11:44:52;9.40;99.90
1778;DHT22;71547;50.146;8.174;2023-11-21T11:47:25;9.40;99.90
1778;DHT22;71547;50.146;8.174;2023-11-21T11:50:07;9.40;99.90
1778;DHT22;71547;50.146;8.174;2023-11-21T11:52:41;9.40;99.90
1778;DHT22;71547;50.146;8.174;2023-11-21T11:55:11;9.40;99.90
1778;DHT22;71547;50.146;8.174;2023-11-21T11:57:41;9.40;99.90
1778;DHT22;71547;50.146;8.174;2023-11-21T12:00:12;9.40;99.90
1778;DHT22;71547;50.146;8.174;2023-11-21T12:02:46;9.40;99.90
1778;DHT22;71547;50.146;8.174;2023-11-21T12:05:17;9.30;99.90
1778;DHT22;71547;50.146;8.174;2023-11-21T12:07:47;9.30;99.90
1778;DHT22;71547;50.146;8.174;2023-11-21T12:10:17;9.30;99.90
1778;DHT22;71547;50.146;8.174;2023-11-21T12:12:47;9.30;99.90
1778;DHT22;71547;50.146;8.174;2023-11-21T12:15:15;9.30;99.90
1778;DHT22;71547;50.146;8.174;2023-11-21T12:17:43;9.30;99.90
1778;DHT22;71547;50.146;8.174;2023-11-21T12:20:12;9.30;99.90
1778;DHT22;71547;50.146;8.174;2023-11-21T12:22:49;9.30;99.90
1778;DHT22;71547;50.146;8.174;2023-11-21T12:25:18;9.30;99.90
1778;DHT22;71547;50.146;8.174;2023-11-21T12:27:48;9.30;99.90
1778;DHT22;71547;50.146;8.174;2023-11-21T12:30:18;9.30;99.90
1778;DHT22;71547;50.146;8.174;2023-11-21T12:32:48;9.40;99.90
1778;DHT22;71547;50.146;8.174;2023-11-21T12:35:18;9.40;99.90
1778;DHT22;71547;50.146;8.174;2023-11-21T12:37:50;9.40;99.90
1778;DHT22;71547;50.146;8.174;2023-11-21T12:40:19;9.30;99.90
1778;DHT22;71547;50.146;8.174;2023-11-21T12:42:51;9.30;99.90
1778;DHT22;71547;50.146;8.174;2023-11-21T12:45:21;9.30;99.90
1778;DHT22;71547;50.146;8.174;2023-11-21T12:47:50;9.30;99.90
1778;DHT22;71547;50.146;8.174;2023-11-21T12:50:21;9.30;99.90
1778;DHT22;71547;50.146;8.174;2023-11-21T12:53:00;9.30;99.90
1778;DHT22;71547;50.146;8.174;2023-11-21T12:55:31;9.30;99.90
1778;DHT22;71547;50.146;8.174;2023-11-21T12:58:02;9.30;99.90
1778;DHT22;71547;50.146;8.174;2023-11-21T13:00:38;9.20;99.90
1778;DHT22;71547;50.146;8.174;2023-11-21T13:03:11;9.20;99.90
1778;DHT22;71547;50.146;8.174;2023-11-21T13:05:44;9.10;99.90
1778;DHT22;71547;50.146;8.174;2023-11-21T13:08:16;9.10;99.90
1778;DHT22;71547;50.146;8.174;2023-11-21T13:10:49;9.10;99.90
1778;DHT22;71547;50.146;8.174;2023-11-21T13:13:18;9.10;99.90
1778;DHT22;71547;50.146;8.174;2023-11-21T13:15:51;9.00;99.90
1778;DHT22;71547;50.146;8.174;2023-11-21T13:18:19;9.10;99.90
1778;DHT22;71547;50.146;8.174;2023-11-21T13:20:48;9.10;99.90
1778;DHT22;71547;50.146;8.174;2023-11-21T13:23:18;9.20;99.90
1778;DHT22;71547;50.146;8.174;2023-11-21T13:25:45;9.20;99.90
1778;DHT22;71547;50.146;8.174;2023-11-21T13:28:24;9.20;99.90
1778;DHT22;71547;50.146;8.174;2023-11-21T13:30:53;9.30;99.90
1778;DHT22;71547;50.146;8.174;2023-11-21T13:33:20;9.20;99.90
1778;DHT22;71547;50.146;8.174;2023-11-21T13:35:54;9.20;99.90
1778;DHT22;71547;50.146;8.174;2023-11-21T13:38:24;9.20;99.90
1778;DHT22;71547;50.146;8.174;2023-11-21T13:40:52;9.20;99.90
1778;DHT22;71547;50.146;8.174;2023-11-21T13:43:22;9.20;99.90
1778;DHT22;71547;50.146;8.174;2023-11-21T13:45:53;9.10;99.90
1778;DHT22;71547;50.146;8.174;2023-11-21T13:48:42;9.10;99.90
1778;DHT22;71547;50.146;8.174;2023-11-21T13:51:10;9.10;99.90
1778;DHT22;71547;50.146;8.174;2023-11-21T13:53:46;9.10;99.90
1778;DHT22;71547;50.146;8.174;2023-11-21T13:56:19;9.10;99.90
1778;DHT22;71547;50.146;8.174;2023-11-21T13:58:51;9.00;99.90
1778;DHT22;71547;50.146;8.174;2023-11-21T14:01:21;9.00;99.90
1778;DHT22;71547;50.146;8.174;2023-11-21T14:03:59;9.00;99.90
1778;DHT22;71547;50.146;8.174;2023-11-21T14:06:43;8.90;99.90
1778;DHT22;71547;50.146;8.174;2023-11-21T14:09:20;9.00;99.90
1778;DHT22;71547;50.146;8.174;2023-11-21T14:11:53;9.00;99.90
1778;DHT22;71547;50.146;8.174;2023-11-21T14:14:24;9.00;99.90
1778;DHT22;71547;50.146;8.174;2023-11-21T14:16:53;9.00;99.90
1778;DHT22;71547;50.146;8.174;2023-11-21T14:19:20;8.90;99.90
1778;DHT22;71547;50.146;8.174;2023-11-21T14:21:48;9.00;99.90
1778;DHT22;71547;50.146;8.174;2023-11-21T14:24:15;9.00;99.90
1778;DHT22;71547;50.146;8.174;2023-11-21T14:26:47;9.00;99.90
1778;DHT22;71547;50.146;8.174;2023-11-21T14:29:16;8.90;99.90
1778;DHT22;71547;50.146;8.174;2023-11-21T14:31:47;9.00;99.90
1778;DHT22;71547;50.146;8.174;2023-11-21T14:34:15;8.90;99.90
1778;DHT22;71547;50.146;8.174;2023-11-21T14:36:48;8.90;99.90
1778;DHT22;71547;50.146;8.174;2023-11-21T14:39:16;8.90;99.90
1778;DHT22;71547;50.146;8.174;2023-11-21T14:42:05;9.00;99.90
1778;DHT22;71547;50.146;8.174;2023-11-21T14:44:34;9.00;99.90
1778;DHT22;71547;50.146;8.174;2023-11-21T14:47:05;9.00;99.90
1778;DHT22;71547;50.146;8.174;2023-11-21T14:49:41;9.00;99.90
1778;DHT22;71547;50.146;8.174;2023-11-21T14:52:23;8.90;99.90
1778;DHT22;71547;50.146;8.174;2023-11-21T14:54:59;8.90;99.90
1778;DHT22;71547;50.146;8.174;2023-11-21T14:57:48;8.90;99.90
1778;DHT22;71547;50.146;8.174;2023-11-21T15:00:20;8.80;99.90
1778;DHT22;71547;50.146;8.174;2023-11-21T15:03:03;8.80;99.90
1778;DHT22;71547;50.146;8.174;2023-11-21T15:05:31;8.70;99.90
1778;DHT22;71547;50.146;8.174;2023-11-21T15:08:01;8.70;99.90
1778;DHT22;71547;50.146;8.174;2023-11-21T15:10:48;8.70;99.90
1778;DHT22;71547;50.146;8.174;2023-11-21T15:13:22;8.70;99.90
1778;DHT22;71547;50.146;8.174;2023-11-21T15:15:51;8.70;99.90
1778;DHT22;71547;50.146;8.174;2023-11-21T15:18:21;8.60;99.90
1778;DHT22;71547;50.146;8.174;2023-11-21T15:20:49;8.70;99.90
1778;DHT22;71547;50.146;8.174;2023-11-21T15:23:16;8.70;99.90
1778;DHT22;71547;50.146;8.174;2023-11-21T15:25:45;8.60;99.90
1778;DHT22;71547;50.146;8.174;2023-11-21T15:28:13;8.60;99.90
1778;DHT22;71547;50.146;8.174;2023-11-21T15:30:41;8.60;99.90
1778;DHT22;71547;50.146;8.174;2023-11-21T15:33:09;8.60;99.90
1778;DHT22;71547;50.146;8.174;2023-11-21T15:35:36;8.60;99.90
1778;DHT22;71547;50.146;8.174;2023-11-21T15:38:05;8.50;99.90
1778;DHT22;71547;50.146;8.174;2023-11-21T15:40:34;8.50;99.90
1778;DHT22;71547;50.146;8.174;2023-11-21T15:43:02;8.50;99.90
1778;DHT22;71547;50.146;8.174;2023-11-21T15:45:30;8.50;99.90
1778;DHT22;71547;50.146;8.174;2023-11-21T15:47:58;8.50;99.90
1778;DHT22;71547;50.146;8.174;2023-11-21T15:50:27;8.50;99.90
1778;DHT22;71547;50.146;8.174;2023-11-21T15:52:54;8.50;99.90
1778;DHT22;71547;50.146;8.174;2023-11-21T15:55:24;8.40;99.90
1778;DHT22;71547;50.146;8.174;2023-11-21T15:57:51;8.40;99.90
1778;DHT22;71547;50.146;8.174;2023-11-21T16:00:19;8.50;99.90
1778;DHT22;71547;50.146;8.174;2023-11-21T16:02:49;8.40;99.90
1778;DHT22;71547;50.146;8.174;2023-11-21T16:05:18;8.40;99.90
1778;DHT22;71547;50.146;8.174;2023-11-21T16:07:46;8.50;99.90
1778;DHT22;71547;50.146;8.174;2023-11-21T16:10:14;8.40;99.90
1778;DHT22;71547;50.146;8.174;2023-11-21T16:12:43;8.40;99.90
1778;DHT22;71547;50.146;8.174;2023-11-21T16:15:10;8.50;99.90
1778;DHT22;71547;50.146;8.174;2023-11-21T16:17:38;8.40;99.90
1778;DHT22;71547;50.146;8.174;2023-11-21T16:20:07;8.40;99.90
1778;DHT22;71547;50.146;8.174;2023-11-21T16:22:41;8.40;99.90